createdAt,value
2023-03-29T00:03:49.270Z,16.3
2023-03-29T00:09:25.382Z,16.2
2023-03-29T00:15:16.924Z,16.1
2023-03-29T00:21:08.802Z,16
2023-03-29T00:27:00.643Z,15.9
2023-03-29T00:32:37.241Z,15.8
2023-03-29T00:38:29.344Z,15.7
2023-03-29T00:43:50.457Z,15.8
2023-03-29T00:49:11.363Z,15.9
2023-03-29T00:54:47.901Z,16.1
2023-03-29T01:00:24.155Z,16
2023-03-29T01:06:00.857Z,15.9
2023-03-29T01:11:21.598Z,15.8
2023-03-29T01:16:57.701Z,15.8
2023-03-29T01:22:49.276Z,15.7
2023-03-29T01:28:40.326Z,15.6
2023-03-29T01:34:32.178Z,15.5
2023-03-29T01:40:24.236Z,15.7
2023-03-29T01:45:44.523Z,15.8
2023-03-29T01:51:21.273Z,15.9
2023-03-29T01:57:13.247Z,15.9
2023-03-29T02:02:49.593Z,15.8
2023-03-29T02:08:41.727Z,15.6
2023-03-29T02:14:33.682Z,15.5
2023-03-29T02:20:09.913Z,15.4
2023-03-29T02:25:46.629Z,15.3
2023-03-29T02:31:38.668Z,15.4
2023-03-29T02:37:15.287Z,15.6
2023-03-29T02:42:51.201Z,15.6
2023-03-29T02:48:14.531Z,15.7
2023-03-29T02:54:06.199Z,15.8
2023-03-29T02:59:58.308Z,15.8
2023-03-29T03:05:34.884Z,15.7
2023-03-29T03:11:25.800Z,15.6
2023-03-29T03:17:20.850Z,15.4
2023-03-29T03:22:58.088Z,15.3
2023-03-29T03:28:33.948Z,15.2
2023-03-29T03:34:26.032Z,15.3
2023-03-29T03:40:02.986Z,15.4
2023-03-29T03:45:27.178Z,15.6
2023-03-29T03:51:04.103Z,15.5
2023-03-29T03:56:40.289Z,15.5
2023-03-29T04:02:16.949Z,15.4
2023-03-29T04:08:09.827Z,15.3
2023-03-29T04:13:46.441Z,15.2
2023-03-29T04:19:39.609Z,15.1
2023-03-29T04:25:31.974Z,15.1
2023-03-29T04:31:23.990Z,15.2
2023-03-29T04:37:18.537Z,15.4
2023-03-29T04:42:56.340Z,15.4
2023-03-29T04:48:33.183Z,15.4
2023-03-29T04:54:24.358Z,15.4
2023-03-29T05:00:18.396Z,15.3
2023-03-29T05:06:09.937Z,15.2
2023-03-29T05:12:04.219Z,15.1
2023-03-29T05:17:56.617Z,14.9
2023-03-29T05:23:48.297Z,14.9
2023-03-29T05:29:39.177Z,15.1
2023-03-29T05:35:15.226Z,15.3
2023-03-29T05:40:43.221Z,15.3
2023-03-29T05:46:20.436Z,15.3
2023-03-29T05:51:57.048Z,15.2
2023-03-29T05:57:49.327Z,15.1
2023-03-29T06:03:53.518Z,15
2023-03-29T06:09:46.089Z,14.9
2023-03-29T06:15:37.957Z,14.8
2023-03-29T06:21:29.731Z,14.9
2023-03-29T06:27:22.186Z,14.9
2023-03-29T06:33:16.575Z,15.1
2023-03-29T06:38:52.820Z,15.4
2023-03-29T06:44:42.088Z,15.4
2023-03-29T06:50:33.410Z,15.3
2023-03-29T06:56:09.669Z,15.2
2023-03-29T07:01:46.411Z,15.1
2023-03-29T07:07:08.164Z,15
2023-03-29T07:13:00.350Z,15
2023-03-29T07:18:54.185Z,15.1
2023-03-29T07:24:15.328Z,15.3
2023-03-29T07:30:20.277Z,15.3
2023-03-29T07:35:57.692Z,15.2
2023-03-29T07:41:34.422Z,15
2023-03-29T07:47:25.147Z,14.8
2023-03-29T07:53:16.658Z,14.7
2023-03-29T07:59:08.679Z,14.7
2023-03-29T08:05:04.370Z,14.8
2023-03-29T08:10:38.209Z,15
2023-03-29T08:16:15.875Z,15
2023-03-29T08:22:02.950Z,14.9
2023-03-29T08:27:39.301Z,14.8
2023-03-29T08:33:32.215Z,14.6
2023-03-29T08:39:24.097Z,14.6
2023-03-29T08:45:00.253Z,14.7
2023-03-29T08:50:27.574Z,14.8
2023-03-29T08:55:32.345Z,14.8
2023-03-29T09:01:08.674Z,14.7
2023-03-29T09:06:30.699Z,14.6
2023-03-29T09:12:07.874Z,14.6
2023-03-29T09:17:44.973Z,14.6
2023-03-29T09:23:21.892Z,14.8
2023-03-29T09:29:11.283Z,15
2023-03-29T09:34:17.127Z,15
2023-03-29T09:39:53.647Z,14.9
2023-03-29T09:45:54.177Z,14.8
2023-03-29T09:51:42.911Z,14.9
2023-03-29T09:57:20.814Z,15.1
2023-03-29T10:02:57.591Z,15
2023-03-29T10:08:36.278Z,14.9
2023-03-29T10:14:13.662Z,14.9
2023-03-29T10:20:03.059Z,14.9
2023-03-29T10:25:25.400Z,15.1
2023-03-29T10:31:03.464Z,15.2
2023-03-29T10:36:40.437Z,15.2
2023-03-29T10:42:16.220Z,15.1
2023-03-29T10:47:37.206Z,15.2
2023-03-29T10:53:14.418Z,15.3
2023-03-29T10:58:50.642Z,15.3
2023-03-29T11:04:12.800Z,15.3
2023-03-29T11:09:48.488Z,15.2
2023-03-29T11:15:37.206Z,15.1
2023-03-29T11:20:58.644Z,15.1
2023-03-29T11:26:19.930Z,15.1
2023-03-29T11:31:41.307Z,14.8
2023-03-29T11:37:18.136Z,14.8
2023-03-29T11:42:23.676Z,14.9
2023-03-29T11:48:15.881Z,14.7
2023-03-29T11:53:54.402Z,14.6
2023-03-29T11:59:15.611Z,14.6
2023-03-29T12:04:54.368Z,14.6
2023-03-29T12:10:30.988Z,14.5
2023-03-29T12:15:54.369Z,14.4
2023-03-29T12:21:33.807Z,14.4
2023-03-29T12:27:10.554Z,14.4
2023-03-29T12:32:31.585Z,14.6
2023-03-29T12:38:08.714Z,14.5
2023-03-29T12:44:00.415Z,14.5
2023-03-29T12:49:53.860Z,14.6
2023-03-29T12:55:45.596Z,14.6
2023-03-29T13:01:23.164Z,14.6
2023-03-29T13:07:15.088Z,14.9
2023-03-29T13:13:06.613Z,15
2023-03-29T13:19:13.447Z,14.9
2023-03-29T13:25:04.694Z,15
2023-03-29T13:30:56.224Z,15
2023-03-29T13:36:33.181Z,15
2023-03-29T13:42:24.640Z,14.9
2023-03-29T13:48:31.640Z,14.9
2023-03-29T13:54:23.592Z,14.9
2023-03-29T14:00:18.577Z,15
2023-03-29T14:06:10.395Z,15
2023-03-29T14:12:02.338Z,14.9
2023-03-29T14:18:01.178Z,14.8
2023-03-29T14:23:53.315Z,14.8
2023-03-29T14:29:30.063Z,14.8
2023-03-29T14:35:21.579Z,14.7
2023-03-29T14:41:14.540Z,14.7
2023-03-29T14:47:06.966Z,14.6
2023-03-29T14:52:57.446Z,14.5
2023-03-29T14:58:49.641Z,14.4
2023-03-29T15:04:44.894Z,14.4
2023-03-29T15:10:46.116Z,14.7
2023-03-29T15:17:55.678Z,14.7
2023-03-29T15:23:46.279Z,28.3
2023-03-29T15:29:24.591Z,36.6
2023-03-29T15:35:32.975Z,38.2
2023-03-29T15:41:36.842Z,39.7
2023-03-29T15:47:28.351Z,40.6
2023-03-29T15:53:31.024Z,39.2
2023-03-29T15:59:23.629Z,39.9
2023-03-29T16:05:15.396Z,42.9
2023-03-29T16:10:53.277Z,37.6
2023-03-29T16:16:46.051Z,40.7
2023-03-29T16:22:37.231Z,36.4
2023-03-29T16:28:13.085Z,38.3
2023-03-29T16:33:50.581Z,40.3
2023-03-29T16:39:41.971Z,42.6
2023-03-29T16:45:18.723Z,44.1
2023-03-29T16:50:40.645Z,45.7
2023-03-29T16:56:31.507Z,45.4
2023-03-29T17:02:26.222Z,45.4
2023-03-29T17:08:18.883Z,45
2023-03-29T17:13:55.971Z,44.5
2023-03-29T17:19:48.057Z,42.8
2023-03-29T17:25:39.780Z,40.3
2023-03-29T17:31:30.870Z,42.8
2023-03-29T17:37:23.309Z,39.1
2023-03-29T17:43:16.258Z,41.9
2023-03-29T17:49:11.373Z,39.8
2023-03-29T17:55:03.244Z,41.3
2023-03-29T18:00:55.770Z,40.6
2023-03-29T18:06:48.319Z,38.8
2023-03-29T18:12:39.995Z,40.6
2023-03-29T18:18:32.101Z,38.5
2023-03-29T18:24:22.778Z,37.2
2023-03-29T18:29:43.780Z,40.6
2023-03-29T18:35:36.660Z,38.4
2023-03-29T18:41:31.831Z,42.3
2023-03-29T18:47:23.874Z,39.2
2023-03-29T18:53:17.995Z,40.8
2023-03-29T18:59:11.045Z,38.3
2023-03-29T19:05:04.378Z,39.6
2023-03-29T19:10:25.570Z,39.8
2023-03-29T19:16:02.173Z,38.7
2023-03-29T19:21:54.005Z,36.9
2023-03-29T19:27:46.876Z,35.1
2023-03-29T19:33:40.315Z,33.4
2023-03-29T19:39:00.609Z,31.6
2023-03-29T19:44:52.867Z,30.3
2023-03-29T19:50:51.518Z,29.2
2023-03-29T19:56:43.899Z,28.3
2023-03-29T20:02:21.227Z,27.8
2023-03-29T20:07:58.127Z,27.3
2023-03-29T20:14:08.346Z,26.8
2023-03-29T20:19:45.115Z,26.4
2023-03-29T20:25:36.668Z,25.9
2023-03-29T20:31:28.038Z,25.6
2023-03-29T20:37:21.160Z,25.3
2023-03-29T20:43:16.514Z,25.1
2023-03-29T20:49:08.242Z,24.9
2023-03-29T20:55:00.602Z,24.7
2023-03-29T21:00:51.693Z,24.4
2023-03-29T21:06:28.594Z,23.3
2023-03-29T21:12:22.458Z,22.2
2023-03-29T21:18:17.482Z,21.4
2023-03-29T21:23:52.225Z,20.7
2023-03-29T21:29:44.572Z,20.1
2023-03-29T21:35:36.889Z,19.6
2023-03-29T21:41:28.568Z,19.2
2023-03-29T21:47:20.820Z,18.9
2023-03-29T21:53:12.618Z,18.9
2023-03-29T22:04:35.629Z,18.4
2023-03-29T22:10:28.022Z,18.1
2023-03-29T22:16:19.390Z,17.9
2023-03-29T22:22:12.392Z,17.7
2023-03-29T22:28:04.260Z,17.5
2023-03-29T22:33:56.441Z,17.4
2023-03-29T22:39:49.047Z,17.5
2023-03-29T22:45:40.914Z,17.4
2023-03-29T22:51:32.824Z,17.3
2023-03-29T22:57:24.652Z,17.1
2023-03-29T23:03:01.672Z,16.9
2023-03-29T23:08:37.423Z,16.8
2023-03-29T23:14:28.501Z,16.7
2023-03-29T23:20:04.439Z,16.8
2023-03-29T23:25:57.665Z,16.9
2023-03-29T23:31:49.538Z,16.8
2023-03-29T23:37:25.744Z,16.7
2023-03-29T23:43:17.762Z,16.6
2023-03-29T23:49:10.251Z,16.4
2023-03-29T23:55:00.889Z,16.4
